Time;durP1;ratioP1;P1;durP2;ratioP2;P2;SDS_P1;SDS_P2;PMS_P1;PMS_P2;Temp;Humidity;BMP_temperature;BMP_pressure;BME280_temperature;BME280_humidity;BME280_pressure;Samples;Min_cycle;Max_cycle;Signal;HPM_P1;HPM_P2
2023/08/11 00:02:24;;;;;;;;;5.25;5.25;;;;;23.30;55.45;99544.81;5069274;28;45650;-59
2023/08/11 00:04:52;;;;;;;;;8.00;6.75;;;;;23.31;55.62;99541.13;5069859;28;45628;-59
2023/08/11 00:07:17;;;;;;;;;6.00;5.40;;;;;23.29;55.70;99548.50;5040203;28;45416;-59
2023/08/11 00:09:44;;;;;;;;;6.00;6.00;;;;;23.29;55.78;99548.50;5035568;27;47222;-59
2023/08/11 00:12:09;;;;;;;;;5.40;4.20;;;;;23.28;55.87;99550.34;5069122;27;45731;-60
2023/08/11 00:14:36;;;;;;;;;5.00;5.00;;;;;23.27;56.40;99559.41;5064233;28;45490;-62
2023/08/11 00:17:02;;;;;;;;;6.20;6.20;;;;;23.22;56.19;99563.44;5068298;27;45449;-62
2023/08/11 00:19:29;;;;;;;;;5.00;4.00;;;;;23.14;56.61;99558.72;5066057;27;45463;-62
2023/08/11 00:21:56;;;;;;;;;5.20;5.20;;;;;23.12;56.53;99563.41;5067027;27;45513;-62
2023/08/11 00:24:22;;;;;;;;;8.00;6.60;;;;;;;;5063273;28;45528;-63
2023/08/11 00:26:47;;;;;;;;;4.75;4.75;;;;;23.07;56.82;99565.59;5068344;28;45430;-62
2023/08/11 00:29:12;;;;;;;;;5.75;5.75;;;;;23.05;57.00;99555.97;5067370;28;45659;-62
2023/08/11 00:31:38;;;;;;;;;7.00;5.75;;;;;23.00;56.71;99555.50;5068827;27;45491;-62
2023/08/11 00:34:03;;;;;;;;;6.00;4.00;;;;;22.96;56.95;99560.25;5064940;27;45494;-61
2023/08/11 00:36:28;;;;;;;;;5.00;5.00;;;;;22.93;57.02;99563.25;5068274;27;45678;-62
2023/08/11 00:39:00;;;;;;;;;7.00;7.00;;;;;22.86;57.24;99568.25;5068025;27;45498;-62
2023/08/11 00:41:25;;;;;;;;;5.60;5.20;;;;;22.73;57.10;99566.69;5068274;28;46137;-62
2023/08/11 00:43:51;;;;;;;;;4.75;4.75;;;;;22.64;57.54;99570.97;5067140;27;45741;-62
2023/08/11 00:46:19;;;;;;;;;5.50;5.00;;;;;22.62;57.98;99571.09;5067035;28;45520;-62
2023/08/11 00:48:50;;;;;;;;;6.00;4.40;;;;;22.59;58.16;99575.91;5067294;28;45570;-62
2023/08/11 00:51:18;;;;;;;;;6.40;5.60;;;;;22.56;57.65;99574.31;5069044;27;45507;-62
2023/08/11 00:53:45;;;;;;;;;7.20;5.00;;;;;22.54;57.62;99580.78;5067046;27;45521;-62
2023/08/11 00:56:13;;;;;;;;;5.20;5.20;;;;;22.55;58.19;99579.81;5066412;28;45554;-62
2023/08/11 00:58:39;;;;;;;;;5.00;4.80;;;;;22.52;59.23;99583.59;5066927;28;45456;-62
2023/08/11 01:01:04;;;;;;;;;7.00;5.00;;;;;22.53;59.47;99584.47;5067407;28;46465;-62
2023/08/11 01:03:30;;;;;;;;;6.25;6.00;;;;;22.54;59.47;99586.16;5067014;27;46516;-62
2023/08/11 01:06:08;;;;;;;;;6.40;6.20;;;;;22.55;60.03;99590.56;5069060;28;45556;-62
2023/08/11 01:08:45;;;;;;;;;10.00;7.60;;;;;22.52;59.91;99583.59;5067238;28;45744;-62
2023/08/11 01:11:21;;;;;;;;;8.40;5.00;;;;;22.54;60.20;99589.72;5066476;28;45515;-62
2023/08/11 01:13:53;;;;;;;;;5.60;4.80;;;;;22.54;59.99;99588.84;5066015;28;45585;-62
2023/08/11 01:16:22;;;;;;;;;8.40;7.00;;;;;22.53;59.88;99590.69;5067926;27;45588;-62
2023/08/11 01:18:48;;;;;;;;;6.20;6.20;;;;;22.53;60.51;99597.91;5067148;28;45596;-62
2023/08/11 01:21:17;;;;;;;;;5.00;5.00;;;;;22.52;60.19;99599.72;5068802;27;45505;-62
2023/08/11 01:23:43;;;;;;;;;7.00;5.60;;;;;22.52;60.35;99593.50;5066769;27;45562;-62
2023/08/11 01:26:11;;;;;;;;;5.80;5.80;;;;;22.50;59.94;99585.56;5068768;27;45542;-62
2023/08/11 01:28:36;;;;;;;;;6.20;6.20;;;;;22.48;59.86;99597.41;5065203;27;45554;-62
2023/08/11 01:31:03;;;;;;;;;5.50;5.50;;;;;22.43;60.03;99595.13;5067775;28;45658;-62
2023/08/11 01:33:28;;;;;;;;;5.60;5.00;;;;;22.37;60.24;99592.91;5065883;28;45529;-62
2023/08/11 01:35:54;;;;;;;;;6.50;6.00;;;;;22.31;60.47;99592.56;5068075;28;45497;-62
2023/08/11 01:38:19;;;;;;;;;7.25;7.25;;;;;22.26;60.50;99596.50;5066197;27;45620;-61
2023/08/11 01:40:45;;;;;;;;;5.50;5.50;;;;;22.23;60.63;99595.88;5067896;27;46811;-62
2023/08/11 01:43:12;;;;;;;;;5.50;5.50;;;;;22.20;60.18;99606.84;5065155;28;45604;-61
2023/08/11 01:45:39;;;;;;;;;5.40;4.40;;;;;22.16;60.28;99608.06;5064288;28;45804;-62
2023/08/11 01:48:06;;;;;;;;;3.20;3.20;;;;;22.06;60.20;99609.78;5065664;28;45570;-62
2023/08/11 01:50:33;;;;;;;;;8.00;6.00;;;;;22.02;60.29;99605.63;5066070;28;45446;-62
2023/08/11 01:52:58;;;;;;;;;4.80;4.80;;;;;21.95;60.07;99611.44;5067368;27;45533;-62
2023/08/11 01:55:25;;;;;;;;;5.25;5.00;;;;;21.92;59.85;99606.34;5066226;28;45600;-62
2023/08/11 01:57:51;;;;;;;;;6.40;6.40;;;;;21.91;59.66;99614.53;5067667;27;45492;-62
2023/08/11 02:00:16;;;;;;;;;5.50;4.00;;;;;21.90;60.52;99613.66;5064196;28;45552;-62
2023/08/11 02:02:43;;;;;;;;;6.00;5.00;;;;;21.88;59.88;99620.13;5067698;27;45518;-62
2023/08/11 02:05:11;;;;;;;;;5.00;5.00;;;;;21.88;60.20;99614.75;5059877;28;45875;-62
2023/08/11 02:07:38;;;;;;;;;5.80;5.20;;;;;21.85;60.05;99615.84;5067533;27;45932;-62
2023/08/11 02:10:04;;;;;;;;;4.00;4.00;;;;;21.83;60.63;99622.31;5063498;27;46569;-62
2023/08/11 02:12:30;;;;;;;;;4.80;3.00;;;;;21.81;60.79;99621.56;5067427;28;45598;-62
2023/08/11 02:14:56;;;;;;;;;5.80;4.60;;;;;21.78;60.68;99628.06;5065310;28;45541;-62
2023/08/11 02:17:21;;;;;;;;;6.25;3.50;;;;;21.75;61.23;99622.94;5066739;28;45564;-63
2023/08/11 02:19:47;;;;;;;;;5.25;5.25;;;;;21.70;61.20;99627.78;5064063;28;45554;-62
2023/08/11 02:22:13;;;;;;;;;5.00;5.00;;;;;21.67;61.19;99625.34;5066563;27;45473;-62
2023/08/11 02:24:38;;;;;;;;;4.40;4.40;;;;;21.63;60.90;99625.69;5065077;28;45534;-62
2023/08/11 02:27:04;;;;;;;;;4.50;4.50;;;;;21.62;61.04;99627.50;5067448;28;45449;-62
2023/08/11 02:29:29;;;;;;;;;7.50;6.50;;;;;21.62;61.84;99624.00;5064302;28;46661;-62
2023/08/11 02:31:55;;;;;;;;;5.75;4.50;;;;;21.62;61.11;99626.69;5066490;28;45643;-62
2023/08/11 02:34:20;;;;;;;;;6.25;5.00;;;;;21.59;61.00;99625.09;5064173;28;45517;-62
2023/08/11 02:36:47;;;;;;;;;6.00;5.25;;;;;21.58;61.63;99634.13;5066602;27;45646;-62
2023/08/11 02:39:12;;;;;;;;;7.00;7.00;;;;;21.59;61.92;99627.78;5098349;27;45547;-62
2023/08/11 02:41:38;;;;;;;;;5.00;5.00;;;;;21.57;62.20;99627.91;5066433;27;45601;-62
2023/08/11 02:44:03;;;;;;;;;7.50;6.00;;;;;21.56;62.23;99626.19;5065493;28;45531;-62
2023/08/11 02:46:29;;;;;;;;;7.25;5.50;;;;;21.50;62.21;99629.31;5064803;28;45735;-62
2023/08/11 02:48:54;;;;;;;;;6.00;6.00;;;;;21.44;62.65;99634.31;5065607;27;46298;-62
2023/08/11 02:51:20;;;;;;;;;4.00;4.00;;;;;21.39;62.57;99629.31;5066578;28;45486;-62
2023/08/11 02:53:45;;;;;;;;;6.00;5.25;;;;;21.36;63.10;99626.84;5065455;28;45467;-62
2023/08/11 02:56:15;;;;;;;;;8.75;7.00;;;;;21.33;62.81;99628.91;5066706;28;45585;-62
2023/08/11 02:58:41;;;;;;;;;5.40;5.40;;;;;21.31;62.88;99634.38;5064871;27;47991;-62
2023/08/11 03:01:07;;;;;;;;;6.25;6.00;;;;;21.30;63.58;99627.31;5066911;28;45479;-62
2023/08/11 03:03:32;;;;;;;;;7.50;6.25;;;;;21.31;63.43;99633.53;5064271;27;45516;-62
2023/08/11 03:05:58;;;;;;;;;6.00;6.00;;;;;21.31;63.29;99636.22;5096996;27;45511;-62
2023/08/11 03:08:23;;;;;;;;;6.25;6.00;;;;;21.30;63.60;99638.03;5064369;27;46233;-62
2023/08/11 03:10:49;;;;;;;;;5.75;5.00;;;;;21.27;63.84;99632.94;5078378;27;46552;-62
2023/08/11 03:13:14;;;;;;;;;6.75;5.25;;;;;21.24;63.51;99636.69;5065467;27;45592;-62
2023/08/11 03:15:40;;;;;;;;;7.00;6.25;;;;;21.24;63.50;99638.53;5066352;27;45505;-62
2023/08/11 03:18:06;;;;;;;;;4.80;4.80;;;;;21.23;63.69;99637.66;5062949;27;47025;-62
2023/08/11 03:20:31;;;;;;;;;7.50;6.25;;;;;21.23;63.87;99634.13;5064026;28;45806;-62
2023/08/11 03:22:56;;;;;;;;;6.25;6.25;;;;;21.22;63.91;99635.09;5063846;28;45447;-62
2023/08/11 03:25:22;;;;;;;;;6.75;5.00;;;;;21.21;63.56;99628.03;5063603;28;45462;-62
2023/08/11 03:27:48;;;;;;;;;7.25;7.00;;;;;21.23;63.53;99634.97;5065890;28;45568;-62
2023/08/11 03:30:13;;;;;;;;;7.00;7.00;;;;;21.24;64.23;99636.69;5064346;27;45496;-62
2023/08/11 03:32:39;;;;;;;;;6.50;6.50;;;;;21.24;64.52;99642.06;5066506;28;45471;-62
2023/08/11 03:35:06;;;;;;;;;5.75;5.25;;;;;21.23;64.69;99637.66;5065867;28;45622;-62
2023/08/11 03:37:32;;;;;;;;;6.40;5.40;;;;;21.24;64.96;99631.34;5066385;28;46112;-62
2023/08/11 03:39:58;;;;;;;;;5.60;5.60;;;;;21.24;64.98;99627.78;5064236;27;45613;-62
2023/08/11 03:42:23;;;;;;;;;8.25;5.75;;;;;21.23;65.17;99634.13;5064619;28;45662;-62
2023/08/11 03:44:52;;;;;;;;;10.25;8.00;;;;;21.23;65.70;99637.66;5061786;27;45865;-62
2023/08/11 03:47:19;;;;;;;;;8.00;8.00;;;;;21.23;65.65;99634.97;5065743;27;45724;-62
2023/08/11 03:49:45;;;;;;;;;6.00;6.00;;;;;21.23;66.35;99634.13;5079273;27;45794;-62
2023/08/11 03:52:12;;;;;;;;;8.50;8.25;;;;;21.23;66.51;99637.66;5066752;27;45442;-62
2023/08/11 03:54:37;;;;;;;;;8.00;7.00;;;;;21.22;66.29;99643.13;5065302;27;45509;-62
2023/08/11 03:57:03;;;;;;;;;6.25;6.25;;;;;21.20;67.18;99637.91;5065453;28;46486;-62
2023/08/11 03:59:28;;;;;;;;;6.00;4.75;;;;;21.19;66.85;99644.22;5062913;28;45871;-62
2023/08/11 04:01:54;;;;;;;;;7.75;7.75;;;;;21.17;67.09;99632.72;5064136;28;45553;-62
2023/08/11 04:04:19;;;;;;;;;7.75;6.50;;;;;21.16;66.37;99639.06;5060931;28;45877;-62
2023/08/11 04:06:45;;;;;;;;;9.50;8.50;;;;;21.16;66.82;99643.56;5065001;28;45568;-62
2023/08/11 04:09:10;;;;;;;;;7.00;6.00;;;;;21.13;66.97;99638.41;5063605;27;45667;-62
2023/08/11 04:11:36;;;;;;;;;6.25;6.25;;;;;21.13;67.30;99635.75;5066115;28;45580;-62
2023/08/11 04:14:01;;;;;;;;;7.25;6.00;;;;;21.13;67.04;99643.78;5064423;27;45597;-62
2023/08/11 04:16:28;;;;;;;;;6.25;5.75;;;;;21.12;67.08;99639.41;5065015;28;45542;-63
2023/08/11 04:18:53;;;;;;;;;7.60;6.40;;;;;21.11;67.21;99641.25;5063801;28;45422;-62
2023/08/11 04:21:18;;;;;;;;;7.00;7.00;;;;;21.12;67.13;99650.13;5065442;27;45474;-62
2023/08/11 04:23:44;;;;;;;;;8.00;7.00;;;;;21.10;66.75;99644.03;5067435;27;45528;-62
2023/08/11 04:26:10;;;;;;;;;9.75;8.75;;;;;21.08;67.36;99648.66;5068098;28;46040;-62
2023/08/11 04:28:36;;;;;;;;;5.80;5.60;;;;;21.07;66.76;99655.84;5068506;27;45415;-62
2023/08/11 04:31:02;;;;;;;;;8.00;7.00;;;;;21.07;67.12;99650.50;5068848;28;45459;-62
2023/08/11 04:33:29;;;;;;;;;8.00;5.50;;;;;21.05;67.30;99646.19;5068504;28;45574;-63
2023/08/11 04:35:55;;;;;;;;;7.20;5.80;;;;;21.02;66.85;99647.28;5067421;28;46331;-62
2023/08/11 04:38:20;;;;;;;;;7.00;6.00;;;;;21.02;67.12;99647.28;5066384;28;45793;-62
2023/08/11 04:40:50;;;;;;;;;7.25;7.00;;;;;21.02;67.23;99649.09;5068698;28;45967;-62
2023/08/11 04:43:15;;;;;;;;;4.00;4.00;;;;;20.99;66.95;99654.69;5067644;27;45612;-62
2023/08/11 04:45:41;;;;;;;;;8.25;6.75;;;;;20.95;67.60;99650.56;5066912;28;46146;-62
2023/08/11 04:48:06;;;;;;;;;8.75;8.00;;;;;20.93;67.34;99653.34;5067462;28;45435;-62
2023/08/11 04:50:32;;;;;;;;;9.00;8.00;;;;;20.92;67.54;99648.94;5068322;28;45481;-62
2023/08/11 04:52:57;;;;;;;;;6.25;6.25;;;;;20.90;67.93;99645.53;5100460;27;45427;-62
2023/08/11 04:55:22;;;;;;;;;7.00;7.00;;;;;20.91;67.56;99647.25;5064313;28;46490;-62
2023/08/11 04:57:48;;;;;;;;;7.00;7.00;;;;;20.90;67.54;99648.22;5066279;28;45518;-62
2023/08/11 05:00:16;;;;;;;;;8.50;7.75;;;;;20.87;68.06;99649.28;5065133;28;45515;-62
2023/08/11 05:02:41;;;;;;;;;9.00;9.00;;;;;20.86;68.35;99658.28;5098757;27;45453;-62
2023/08/11 05:05:08;;;;;;;;;9.25;8.25;;;;;20.87;68.55;99649.28;5065250;27;46488;-62
2023/08/11 05:07:33;;;;;;;;;7.60;7.00;;;;;20.88;68.47;99650.13;5065391;28;45917;-62
2023/08/11 05:09:59;;;;;;;;;7.00;7.00;;;;;20.89;68.20;99655.38;5063921;27;45559;-62
2023/08/11 05:12:24;;;;;;;;;12.50;9.50;;;;;20.90;68.28;99654.41;5067261;27;45494;-62
2023/08/11 05:14:50;;;;;;;;;9.75;8.25;;;;;20.92;68.65;99666.84;5065606;28;45513;-62
2023/08/11 05:17:15;;;;;;;;;8.75;7.25;;;;;20.93;68.46;99652.50;5067946;27;45498;-62
2023/08/11 05:19:41;;;;;;;;;8.25;8.25;;;;;20.96;68.34;99658.44;5067683;28;45544;-62
2023/08/11 05:22:06;;;;;;;;;12.25;12.25;;;;;20.97;68.06;99664.66;5065646;27;45740;-62
2023/08/11 05:24:32;;;;;;;;;6.75;6.75;;;;;20.98;67.85;99664.56;5066490;27;46010;-62
2023/08/11 05:26:58;;;;;;;;;10.25;8.25;;;;;21.01;67.74;99666.16;5068350;28;45449;-62
2023/08/11 05:29:23;;;;;;;;;8.75;8.75;;;;;21.04;67.85;99663.25;5066389;27;45553;-62
2023/08/11 05:31:49;;;;;;;;;7.50;6.50;;;;;21.06;67.72;99667.53;5065997;28;45474;-62
2023/08/11 05:34:14;;;;;;;;;8.00;7.25;;;;;21.08;67.63;99665.59;5065178;28;46451;-62
2023/08/11 05:36:39;;;;;;;;;8.00;7.00;;;;;21.09;67.26;99667.31;5068246;27;45529;-62
2023/08/11 05:39:06;;;;;;;;;7.50;5.75;;;;;21.12;67.07;99668.88;5067754;28;45632;-62
2023/08/11 05:41:32;;;;;;;;;9.00;9.00;;;;;21.17;66.66;99670.25;5067581;28;45403;-62
2023/08/11 05:43:58;;;;;;;;;10.00;9.00;;;;;21.21;66.84;99668.25;5065404;27;46546;-62
2023/08/11 05:46:23;;;;;;;;;7.00;6.50;;;;;21.27;67.01;99672.31;5067376;28;45490;-62
2023/08/11 05:48:50;;;;;;;;;11.50;8.25;;;;;21.31;66.84;99673.75;5065809;27;45548;-62
2023/08/11 05:51:16;;;;;;;;;6.75;6.00;;;;;21.34;66.00;99671.72;5067412;27;45456;-63
2023/08/11 05:53:42;;;;;;;;;8.75;7.00;;;;;21.38;65.64;99678.56;5065544;28;46640;-62
2023/08/11 05:56:07;;;;;;;;;7.00;6.00;;;;;21.41;65.52;99675.66;5067123;28;45460;-62
2023/08/11 05:58:33;;;;;;;;;8.25;8.00;;;;;21.46;65.57;99684.19;5065637;28;45615;-62
2023/08/11 06:01:01;;;;;;;;;9.00;8.00;;;;;21.51;65.20;99676.66;5065486;28;45738;-62
2023/08/11 06:03:30;;;;;;;;;7.00;6.25;;;;;21.56;64.72;99679.00;5065885;27;45598;-59
2023/08/11 06:06:04;;;;;;;;;10.60;7.40;;;;;21.63;64.86;99682.91;5058641;28;45548;-51
2023/08/11 06:08:30;;;;;;;;;8.20;7.00;;;;;21.71;64.28;99679.63;5063770;27;45467;-52
2023/08/11 06:10:55;;;;;;;;;6.00;6.00;;;;;21.78;64.06;99681.75;5064211;28;45484;-53
2023/08/11 06:13:22;;;;;;;;;7.50;7.50;;;;;21.85;64.17;99687.47;5065884;28;46334;-54
2023/08/11 06:15:49;;;;;;;;;8.00;6.80;;;;;21.93;64.29;99682.38;5066231;28;45619;-53
2023/08/11 06:18:14;;;;;;;;;8.80;7.80;;;;;22.01;63.90;99679.13;5065642;28;45841;-50
2023/08/11 06:20:40;;;;;;;;;8.25;6.00;;;;;22.06;64.78;99680.47;5063451;28;45810;-50
2023/08/11 06:23:05;;;;;;;;;8.25;7.00;;;;;22.14;64.23;99690.59;5063190;28;45579;-51
2023/08/11 06:25:30;;;;;;;;;8.00;8.00;;;;;22.22;64.65;99686.34;5065274;28;45432;-53
2023/08/11 06:27:56;;;;;;;;;9.75;5.25;;;;;22.33;64.05;99684.63;5064420;28;45423;-52
2023/08/11 06:30:21;;;;;;;;;7.00;7.00;;;;;22.44;63.80;99688.19;5065438;27;45645;-54
2023/08/11 06:32:47;;;;;;;;;13.25;9.00;;;;;22.52;63.28;99688.41;5066356;28;46026;-53
2023/08/11 06:35:12;;;;;;;;;10.00;8.75;;;;;22.56;63.38;99691.72;5066342;28;46312;-50
2023/08/11 06:37:38;;;;;;;;;8.50;8.50;;;;;22.59;63.18;99692.34;5067349;27;45517;-50
2023/08/11 06:40:04;;;;;;;;;8.25;8.25;;;;;22.66;63.50;99695.34;5064757;28;45960;-51
2023/08/11 06:42:30;;;;;;;;;13.20;8.60;;;;;22.70;63.44;99694.13;5065407;27;45497;-52
2023/08/11 06:44:55;;;;;;;;;10.00;8.25;;;;;22.76;63.29;99696.34;5062620;28;45575;-51
2023/08/11 06:47:20;;;;;;;;;9.00;8.50;;;;;22.84;63.25;99699.28;5064521;28;45976;-51
2023/08/11 06:49:46;;;;;;;;;11.50;10.00;;;;;22.89;63.18;99694.38;5064087;28;45517;-52
2023/08/11 06:52:11;;;;;;;;;10.00;9.25;;;;;22.95;62.93;99695.72;5063333;28;47636;-52
2023/08/11 06:54:38;;;;;;;;;12.25;11.50;;;;;23.00;62.62;99689.94;5063840;27;45462;-52
2023/08/11 06:57:04;;;;;;;;;11.00;10.40;;;;;23.06;62.65;99690.31;5065762;27;45540;-51
2023/08/11 06:59:30;;;;;;;;;13.00;10.00;;;;;23.14;62.33;99697.72;5063824;27;45581;-52
2023/08/11 07:01:55;;;;;;;;;11.75;10.00;;;;;23.20;61.79;99698.09;5064569;28;45550;-49
2023/08/11 07:04:21;;;;;;;;;13.00;10.00;;;;;23.23;61.82;99705.06;5063146;28;45528;-51
2023/08/11 07:06:46;;;;;;;;;11.00;9.00;;;;;23.25;61.85;99695.88;5065938;28;45620;-51
2023/08/11 07:09:12;;;;;;;;;10.50;9.75;;;;;23.28;61.68;99698.31;5064577;27;45467;-50
2023/08/11 07:11:37;;;;;;;;;10.25;8.25;;;;;23.32;61.53;99705.13;5066213;27;46383;-53
2023/08/11 07:14:03;;;;;;;;;8.75;8.00;;;;;23.35;61.37;99705.88;5064628;28;45554;-51
2023/08/11 07:16:28;;;;;;;;;8.75;8.50;;;;;23.36;61.14;99696.81;5066005;28;46738;-54
2023/08/11 07:18:54;;;;;;;;;10.25;8.50;;;;;23.35;61.08;99697.78;5065036;28;45527;-53
2023/08/11 07:21:19;;;;;;;;;10.25;9.00;;;;;23.33;61.46;99693.38;5065190;28;45731;-53
2023/08/11 07:23:45;;;;;;;;;11.50;8.25;;;;;23.36;61.79;99696.81;5064338;27;45451;-52
2023/08/11 07:26:10;;;;;;;;;7.50;6.25;;;;;23.37;61.43;99707.44;5065901;28;45656;-50
2023/08/11 07:28:35;;;;;;;;;8.00;8.00;;;;;23.39;61.43;99702.78;5064585;28;45731;-53
2023/08/11 07:31:01;;;;;;;;;8.00;8.00;;;;;23.44;61.39;99703.28;5063363;27;45964;-52
2023/08/11 07:33:26;;;;;;;;;9.50;9.50;;;;;23.47;61.11;99704.81;5063905;28;45672;-51
2023/08/11 07:35:52;;;;;;;;;6.50;6.25;;;;;23.50;60.87;99709.97;5063519;28;45579;-52
2023/08/11 07:38:20;;;;;;;;;7.75;7.75;;;;;23.52;60.49;99716.09;5064996;27;46476;-52
2023/08/11 07:40:46;;;;;;;;;9.60;9.60;;;;;23.52;60.11;99716.09;5065105;28;46361;-53
2023/08/11 07:43:11;;;;;;;;;8.00;8.00;;;;;23.49;60.19;99706.41;5065439;28;45551;-52
2023/08/11 07:45:37;;;;;;;;;7.75;7.75;;;;;23.49;60.20;99710.94;5063828;27;45597;-50
2023/08/11 07:48:03;;;;;;;;;6.75;6.75;;;;;23.47;60.35;99703.00;5064766;28;45562;-53
2023/08/11 07:50:28;;;;;;;;;8.00;8.00;;;;;23.47;60.46;99713.75;5064449;28;45555;-53
2023/08/11 07:52:54;;;;;;;;;10.25;9.50;;;;;23.48;60.58;99714.63;5065246;27;45393;-52
2023/08/11 07:55:19;;;;;;;;;9.75;7.75;;;;;23.50;60.49;99723.41;5063877;27;45426;-51
2023/08/11 07:57:45;;;;;;;;;7.50;7.50;;;;;23.54;59.86;99719.53;5066938;28;45495;-52
2023/08/11 08:00:16;;;;;;;;;8.00;6.50;;;;;23.58;59.37;99711.06;5067706;27;45521;-53
2023/08/11 08:02:45;;;;;;;;;8.20;7.40;;;;;23.66;59.56;99710.41;5069621;27;45519;-50
2023/08/11 08:05:11;;;;;;;;;7.00;7.00;;;;;23.70;58.57;99717.25;5101597;27;45648;-53
2023/08/11 08:07:37;;;;;;;;;10.00;8.20;;;;;23.74;58.26;99726.78;5069727;27;45376;-51
2023/08/11 08:10:08;;;;;;;;;9.25;6.25;;;;;23.78;58.67;99717.47;5063550;28;45484;-53
2023/08/11 08:12:44;;;;;;;;;7.80;7.80;;;;;23.81;58.37;99713.63;5099962;27;45640;-60
2023/08/11 08:15:10;;;;;;;;;8.60;7.60;;;;;23.88;58.21;99704.91;5065020;27;45536;-63
2023/08/11 08:17:37;;;;;;;;;9.40;7.20;;;;;23.94;58.49;99708.94;5069330;27;45438;-63
2023/08/11 08:20:13;;;;;;;;;7.20;7.20;;;;;24.02;58.03;99712.66;5065310;28;46309;-63
2023/08/11 08:22:39;;;;;;;;;7.80;6.80;;;;;24.11;57.93;99715.56;5065857;28;45694;-64
2023/08/11 08:25:08;;;;;;;;;8.25;8.25;;;;;24.19;57.80;99711.19;5096453;27;45519;-63
2023/08/11 08:27:35;;;;;;;;;8.25;7.00;;;;;24.27;57.42;99707.88;5069594;27;45519;-64
2023/08/11 08:30:00;;;;;;;;;8.00;8.00;;;;;24.32;57.26;99711.00;5066787;28;45770;-62
2023/08/11 08:32:27;;;;;;;;;5.25;4.75;;;;;24.37;56.74;99711.47;5100075;27;45515;-64
2023/08/11 08:34:52;;;;;;;;;6.40;6.40;;;;;24.40;56.21;99713.03;5059200;27;45468;-64
2023/08/11 08:37:21;;;;;;;;;8.00;7.00;;;;;24.44;56.20;99706.41;5068773;28;45451;-64
2023/08/11 08:39:47;;;;;;;;;8.60;7.60;;;;;24.51;56.85;99699.44;5073163;27;46218;-63
2023/08/11 08:42:14;;;;;;;;;8.75;7.75;;;;;24.57;56.57;99702.47;5054909;28;46051;-64
2023/08/11 08:44:41;;;;;;;;;8.40;8.40;;;;;24.64;56.25;99700.91;5059316;28;45488;-64
2023/08/11 08:47:07;;;;;;;;;5.50;5.50;;;;;24.72;56.01;99713.72;5061173;28;45468;-64
2023/08/11 08:49:36;;;;;;;;;7.80;6.60;;;;;24.79;55.31;99706.81;5064437;27;48266;-64
2023/08/11 08:52:02;;;;;;;;;9.00;9.00;;;;;24.86;56.05;99710.66;5071487;28;45597;-64
2023/08/11 08:54:28;;;;;;;;;8.40;8.40;;;;;24.90;55.47;99706.69;5066490;28;45525;-64
2023/08/11 08:56:54;;;;;;;;;8.20;8.20;;;;;24.96;55.20;99699.94;5069161;27;45828;-64
2023/08/11 08:59:21;;;;;;;;;6.80;6.80;;;;;25.02;54.72;99699.34;5065906;28;45519;-64
2023/08/11 09:01:47;;;;;;;;;6.20;6.20;;;;;25.09;54.84;99695.13;5069854;27;45448;-63
2023/08/11 09:04:15;;;;;;;;;7.40;7.20;;;;;25.17;54.47;99689.88;5068784;28;45548;-63
2023/08/11 09:06:41;;;;;;;;;8.40;7.00;;;;;25.25;54.30;99689.19;5065763;28;45613;-64
2023/08/11 09:09:08;;;;;;;;;7.00;7.00;;;;;25.32;53.67;99687.59;5065699;27;45829;-63
2023/08/11 09:11:34;;;;;;;;;6.80;6.00;;;;;25.41;52.80;99685.91;5061215;28;45651;-64
2023/08/11 09:14:06;;;;;;;;;8.00;8.00;;;;;25.47;52.52;99686.19;5066001;28;45457;-64
2023/08/11 09:16:37;;;;;;;;;7.00;7.00;;;;;25.53;52.16;99680.22;5064510;28;45686;-64
2023/08/11 09:19:04;;;;;;;;;7.60;5.80;;;;;25.62;52.06;99678.56;5064710;28;45751;-63
2023/08/11 09:21:30;;;;;;;;;7.20;7.20;;;;;25.68;51.70;99675.25;5066474;28;45542;-64
2023/08/11 09:23:56;;;;;;;;;7.80;7.20;;;;;25.76;51.70;99671.84;5063305;28;45489;-64
2023/08/11 09:26:25;;;;;;;;;9.80;8.20;;;;;25.86;51.84;99683.47;5067725;28;45534;-64
2023/08/11 09:28:52;;;;;;;;;7.20;6.40;;;;;25.92;51.95;99681.06;5068321;27;45549;-63
2023/08/11 09:31:36;;;;;;;;;9.00;8.80;;;;;25.97;51.58;99669.84;5068478;28;45462;-64
2023/08/11 09:34:12;;;;;;;;;8.80;7.80;;;;;26.05;51.33;99675.34;5069363;28;45523;-63
2023/08/11 09:36:37;;;;;;;;;7.25;7.25;;;;;26.10;51.32;99670.34;5072372;28;45442;-64
2023/08/11 09:39:07;;;;;;;;;7.00;7.00;;;;;26.16;51.27;99666.19;5066988;28;47223;-63
2023/08/11 09:41:41;;;;;;;;;8.40;7.80;;;;;26.22;50.82;99652.94;5063818;27;45767;-64
2023/08/11 09:44:07;;;;;;;;;5.40;5.00;;;;;26.28;49.98;99648.81;5068164;28;45539;-64
2023/08/11 09:46:35;;;;;;;;;7.00;7.00;;;;;26.34;50.00;99642.81;5063637;28;45558;-63
2023/08/11 09:49:01;;;;;;;;;7.60;7.60;;;;;26.39;49.40;99643.25;5068503;28;46513;-64
2023/08/11 09:51:28;;;;;;;;;5.00;5.00;;;;;26.43;49.43;99633.84;5063143;27;45489;-64
2023/08/11 09:53:54;;;;;;;;;6.00;6.00;;;;;26.47;49.25;99635.25;5066619;28;45527;-64
2023/08/11 09:56:21;;;;;;;;;4.20;4.20;;;;;26.52;48.98;99630.22;5062507;28;45565;-64
2023/08/11 09:58:49;;;;;;;;;8.80;7.60;;;;;26.57;49.18;99633.31;5067745;27;46322;-64
2023/08/11 10:01:16;;;;;;;;;6.00;6.00;;;;;26.60;48.63;99627.63;5063048;28;45493;-64
2023/08/11 10:03:44;;;;;;;;;5.60;5.00;;;;;26.68;48.79;99630.41;5068374;28;45417;-63
2023/08/11 10:06:23;;;;;;;;;7.00;5.20;;;;;26.77;48.73;99620.53;5065679;28;45551;-63
2023/08/11 10:08:50;;;;;;;;;3.80;3.00;;;;;26.85;48.22;99619.75;5063296;28;45578;-63
2023/08/11 10:11:19;;;;;;;;;5.60;5.60;;;;;26.90;48.03;99615.59;5068110;28;45362;-63
2023/08/11 10:13:46;;;;;;;;;8.80;6.60;;;;;26.98;48.49;99612.19;5068516;27;45547;-63
2023/08/11 10:16:14;;;;;;;;;6.60;6.60;;;;;27.03;47.92;99616.09;5062478;28;45550;-63
2023/08/11 10:18:42;;;;;;;;;5.40;5.40;;;;;27.13;47.93;99609.78;5068989;28;46858;-64
2023/08/11 10:21:08;;;;;;;;;8.60;8.20;;;;;27.18;48.07;99597.47;5061900;28;45439;-63
2023/08/11 10:23:34;;;;;;;;;6.00;4.60;;;;;27.28;47.80;99603.66;5085857;27;45485;-63
2023/08/11 10:26:00;;;;;;;;;7.00;6.00;;;;;27.37;47.71;99613.53;5060690;28;45638;-63
2023/08/11 10:28:26;;;;;;;;;7.00;7.00;;;;;27.45;47.17;99604.66;5066281;28;45512;-62
2023/08/11 10:30:58;;;;;;;;;6.00;5.75;;;;;27.54;47.19;99610.97;5061397;28;45507;-63
2023/08/11 10:33:29;;;;;;;;;5.80;5.80;;;;;27.61;46.78;99593.09;5068284;28;45697;-63
2023/08/11 10:35:56;;;;;;;;;5.80;5.80;;;;;27.69;46.54;99587.72;5065486;28;45428;-62
2023/08/11 10:38:29;;;;;;;;;5.00;4.80;;;;;27.78;46.80;99592.22;5055948;27;45514;-62
2023/08/11 10:41:07;;;;;;;;;3.20;3.20;;;;;27.84;46.29;99594.25;5060179;28;45515;-62
2023/08/11 10:43:34;;;;;;;;;5.20;5.20;;;;;27.90;46.47;99585.50;5070252;28;45448;-63
2023/08/11 10:46:22;;;;;;;;;5.00;5.00;;;;;27.99;46.28;99586.38;5061547;28;45495;-63
2023/08/11 10:48:47;;;;;;;;;3.60;3.60;;;;;28.05;45.51;99583.88;5068841;28;46752;-62
2023/08/11 10:51:43;;;;;;;;;5.75;5.75;;;;;28.14;45.40;99585.66;5057265;28;45545;-65
2023/08/11 10:54:11;;;;;;;;;4.40;3.40;;;;;28.23;45.79;99583.84;5050117;28;45522;-63
2023/08/11 10:56:41;;;;;;;;;4.40;4.40;;;;;28.30;44.83;99571.34;5071852;28;45439;-61
2023/08/11 10:59:21;;;;;;;;;3.60;3.60;;;;;28.38;45.52;99571.34;5063902;28;45493;-63
2023/08/11 11:01:52;;;;;;;;;3.40;3.40;;;;;28.46;45.28;99560.53;5061808;28;45472;-61
2023/08/11 11:04:19;;;;;;;;;4.60;4.60;;;;;28.53;45.07;99566.13;5068645;28;45532;-61
2023/08/11 11:06:47;;;;;;;;;6.00;4.60;;;;;28.61;44.30;99565.31;5056629;27;46166;-61
2023/08/11 11:09:14;;;;;;;;;7.00;5.00;;;;;28.69;44.55;99563.47;5061548;28;46735;-60
2023/08/11 11:11:41;;;;;;;;;5.40;4.80;;;;;28.76;44.21;99566.38;5060353;27;45561;-61
2023/08/11 11:14:08;;;;;;;;;6.40;5.20;;;;;28.85;43.76;99556.41;5068033;28;45530;-61
2023/08/11 11:16:34;;;;;;;;;5.60;5.60;;;;;28.94;43.88;99558.13;5063297;28;45495;-61
2023/08/11 11:19:01;;;;;;;;;4.40;4.00;;;;;29.03;43.49;99562.53;5054543;28;45552;-61
2023/08/11 11:21:27;;;;;;;;;4.60;4.60;;;;;29.10;43.18;99563.56;5065005;28;45539;-61
2023/08/11 11:23:53;;;;;;;;;5.75;5.75;;;;;29.16;43.04;99555.56;5064245;28;45472;-61
2023/08/11 11:26:26;;;;;;;;;4.00;4.00;;;;;29.21;43.39;99555.06;5092522;27;45535;-61
2023/08/11 11:28:53;;;;;;;;;5.60;5.60;;;;;29.29;42.84;99548.81;5068032;28;46367;-61
2023/08/11 11:31:21;;;;;;;;;6.20;5.80;;;;;29.34;42.83;99549.97;5062241;28;45979;-61
2023/08/11 11:33:47;;;;;;;;;4.40;3.00;;;;;29.38;42.47;99548.63;5060202;27;45454;-61